Veendam — PHEO — position and weather

sailwx.info

Track history (hours):
 
Tides and Currents Weather Stations Pressure Air Temp Water Temp Dewpoint Dewpoint Depression Visibility Wind Speed Wind Dir Waves Ship Positions

Veendam (Netherlands)

Last reported at 2020-Aug-09 12:29 UTC. Time now 2020-Aug-09 22:50 UTC.
Position N 37°22' E 023°41'.

Type: Passenger vessel. MMSI: 246506000.

Date/timePositionNaut miles runAvg speedWind from/ knotsBaromVisibWave heightAir tempDewpointWater temp
2020-Aug-09 12:29N 37°22' E 023°41'2718.0
2020-Aug-09 11:00N 37°49' E 023°37'7 4.8
2020-Aug-09 09:29N 37°56' E 023°37'0 0.0
2020-Aug-09 07:29N 37°56' E 023°37'0 0.0
2020-Aug-09 06:59N 37°56' E 023°37'0 0.0
2020-Aug-09 05:29N 37°56' E 023°37'0 0.0
2020-Aug-09 04:29N 37°56' E 023°37'0 0.0
2020-Aug-08 23:29N 37°56' E 023°37'0 0.0
2020-Aug-08 22:29N 37°56' E 023°37'0 0.0
2020-Aug-08 21:29N 37°56' E 023°37'0 0.0
2020-Aug-08 17:29N 37°56' E 023°37'0 0.0
2020-Aug-08 14:29N 37°56' E 023°37'0 0.0
2020-Aug-08 12:59N 37°56' E 023°37'0 0.0
2020-Aug-08 11:29N 37°56' E 023°37'0 0.0
2020-Aug-08 10:59N 37°56' E 023°37'0 0.0
2020-Aug-08 09:29N 37°56' E 023°37'0 0.0
2020-Aug-08 08:59N 37°56' E 023°37'0 0.0
2020-Aug-08 07:59N 37°56' E 023°37'0 0.0
2020-Aug-08 04:59N 37°56' E 023°37'0 0.0
2020-Aug-08 03:59N 37°56' E 023°37'0 0.0
2020-Aug-08 03:29N 37°56' E 023°37'0 0.0
2020-Aug-08 02:59N 37°56' E 023°37'0 0.0
2020-Aug-08 00:59N 37°56' E 023°37'0 0.0
2020-Aug-07 23:59N 37°56' E 023°37'0 0.0
2020-Aug-07 21:59N 37°56' E 023°37'0 0.0
2020-Aug-07 19:29N 37°56' E 023°37'0 0.0
2020-Aug-07 17:29N 37°56' E 023°37'0 0.0
2020-Aug-07 16:29N 37°56' E 023°37'0 0.0
2020-Aug-07 13:59N 37°56' E 023°37'0 0.0
2020-Aug-07 12:59N 37°56' E 023°37'0 0.0
2020-Aug-07 12:29N 37°56' E 023°37'0 0.0
2020-Aug-07 10:29N 37°56' E 023°37'0 0.0
2020-Aug-07 09:59N 37°56' E 023°37'0 0.0
2020-Aug-07 06:29N 37°56' E 023°37'0 0.0
2020-Aug-07 04:59N 37°56' E 023°37'0 0.0
2020-Aug-07 04:29N 37°56' E 023°37'0 0.0
2020-Aug-07 04:00N 37°56' E 023°37'1 1.7
2020-Aug-07 03:30N 37°56' E 023°36'20 7.9
2020-Aug-07 01:00N 37°38' E 023°47'40913.0
2020-Aug-05 17:29N 34°36' E 031°20'5415.2
2020-Aug-05 13:54N 34°28' E 032°25'1415.0
2020-Aug-05 13:00N 34°26' E 032°41'714.8
2020-Aug-05 12:30N 34°26' E 032°50'23 7.5
2020-Aug-05 09:30N 34°42' E 033°10'0 0.0
2020-Aug-05 06:30N 34°42' E 033°10'0 0.0
2020-Aug-05 04:27N 34°42' E 033°10'0 0.0
2020-Aug-05 00:30N 34°42' E 033°10'0 0.0
2020-Aug-04 22:30N 34°42' E 033°10'0 0.0
2020-Aug-04 21:00N 34°42' E 033°10'0 0.0
2020-Aug-04 20:00N 34°42' E 033°10'0 0.0
2020-Aug-04 17:00N 34°42' E 033°10'0 0.0
2020-Aug-04 11:00N 34°42' E 033°10'0 0.0
2020-Aug-04 09:30N 34°42' E 033°10'0 0.0
2020-Aug-04 09:00N 34°42' E 033°10'0 0.0
2020-Aug-04 08:30N 34°42' E 033°10'0 0.0
2020-Aug-04 04:57N 34°42' E 033°10'0 0.0
2020-Aug-04 04:00N 34°42' E 033°10'0 0.0
2020-Aug-04 02:54N 34°42' E 033°10'0 0.0
2020-Aug-03 22:30N 34°42' E 033°10'0 0.0
2020-Aug-03 17:30N 34°42' E 033°10'0 0.0
2020-Aug-03 16:30N 34°42' E 033°10'0 0.0
2020-Aug-03 15:30N 34°42' E 033°10'0 0.0
2020-Aug-03 13:00N 34°42' E 033°10'0 0.0
2020-Aug-03 11:00N 34°42' E 033°10'0 0.0
2020-Aug-03 10:00N 34°42' E 033°10'0 0.0
2020-Aug-03 09:24N 34°42' E 033°10'0 0.1
2020-Aug-03 09:00N 34°42' E 033°10'0 0.0
2020-Aug-03 07:00N 34°42' E 033°10'0 0.0
2020-Aug-03 05:30N 34°42' E 033°10'0 0.0
2020-Aug-03 04:30N 34°42' E 033°10'0 0.0
2020-Aug-03 03:30N 34°42' E 033°10'0 0.0
2020-Aug-03 00:00N 34°42' E 033°10'0 0.0
2020-Aug-02 17:30N 34°42' E 033°10'0 0.0
2020-Aug-02 16:30N 34°42' E 033°10'0 0.0
2020-Aug-02 13:30N 34°42' E 033°10'0 0.1
2020-Aug-02 13:00N 34°42' E 033°10'0 0.1
2020-Aug-02 12:30N 34°42' E 033°10'0 0.0
2020-Aug-02 10:30N 34°42' E 033°10'0 0.0
2020-Aug-02 10:00N 34°42' E 033°10'0 0.0
2020-Aug-02 06:27N 34°42' E 033°10'0 0.0
2020-Aug-02 05:00N 34°42' E 033°10'0 0.0
2020-Aug-02 04:30N 34°42' E 033°10'0 0.0
2020-Aug-02 04:00N 34°42' E 033°10'0 0.0
2020-Aug-02 03:00N 34°42' E 033°10'0 0.0
2020-Aug-02 02:00N 34°42' E 033°10'0 0.0
2020-Aug-02 01:00N 34°42' E 033°10'0 0.0
2020-Aug-01 22:30N 34°42' E 033°10'0 0.0
2020-Aug-01 16:00N 34°42' E 033°10'0 0.0
2020-Aug-01 13:57N 34°42' E 033°10'0 0.0
2020-Aug-01 11:30N 34°42' E 033°10'0 0.0
2020-Aug-01 09:30N 34°42' E 033°10'0 0.0
2020-Aug-01 05:30N 34°42' E 033°10'0 0.0
2020-Aug-01 03:00N 34°42' E 033°10'0 0.0
2020-Aug-01 02:30N 34°42' E 033°10'0 0.0
2020-Aug-01 00:30N 34°42' E 033°10'0 0.0
2020-Aug-01 00:00N 34°42' E 033°10'0 0.0
2020-Jul-31 21:30N 34°42' E 033°10'0 0.0
2020-Jul-31 18:00N 34°42' E 033°10'0 0.0
2020-Jul-31 15:27N 34°42' E 033°10'0 0.0
2020-Jul-31 12:00N 34°42' E 033°10'0 0.0
2020-Jul-31 10:00N 34°42' E 033°10'0 0.0
2020-Jul-31 06:30N 34°42' E 033°10'0 0.0
2020-Jul-31 06:00N 34°42' E 033°10'0 0.0
2020-Jul-31 05:00N 34°42' E 033°10'0 0.0
2020-Jul-31 04:00N 34°42' E 033°10'0 0.0
2020-Jul-31 01:00N 34°42' E 033°10'0 0.0
2020-Jul-31 00:30N 34°42' E 033°10'0 0.0
2020-Jul-30 22:30N 34°42' E 033°10'0 0.0
2020-Jul-30 21:30N 34°42' E 033°10'0 0.0
2020-Jul-30 20:30N 34°42' E 033°10'0 0.0
2020-Jul-30 19:30N 34°42' E 033°10'0 0.0
2020-Jul-30 13:30N 34°42' E 033°10'  
Track history (hours):
 
Tides and Currents Weather Stations Pressure Air Temp Water Temp Dewpoint Dewpoint Depression Visibility Wind Speed Wind Dir Waves Ship Positions

Veendam (Netherlands)

Last reported at 2020-Aug-09 12:29 UTC. Time now 2020-Aug-09 22:50 UTC.
Position N 37°22' E 023°41'.

Type: Passenger vessel. MMSI: 246506000.

Date/timePositionNaut miles runAvg speedWind from/ knotsBaromVisibWave heightAir tempDewpointWater temp
2020-Aug-09 12:29N 37°22' E 023°41'2718.0
2020-Aug-09 11:00N 37°49' E 023°37'7 4.8
2020-Aug-09 09:29N 37°56' E 023°37'0 0.0
2020-Aug-09 07:29N 37°56' E 023°37'0 0.0
2020-Aug-09 06:59N 37°56' E 023°37'0 0.0
2020-Aug-09 05:29N 37°56' E 023°37'0 0.0
2020-Aug-09 04:29N 37°56' E 023°37'0 0.0
2020-Aug-08 23:29N 37°56' E 023°37'0 0.0
2020-Aug-08 22:29N 37°56' E 023°37'0 0.0
2020-Aug-08 21:29N 37°56' E 023°37'0 0.0
2020-Aug-08 17:29N 37°56' E 023°37'0 0.0
2020-Aug-08 14:29N 37°56' E 023°37'0 0.0
2020-Aug-08 12:59N 37°56' E 023°37'0 0.0
2020-Aug-08 11:29N 37°56' E 023°37'0 0.0
2020-Aug-08 10:59N 37°56' E 023°37'0 0.0
2020-Aug-08 09:29N 37°56' E 023°37'0 0.0
2020-Aug-08 08:59N 37°56' E 023°37'0 0.0
2020-Aug-08 07:59N 37°56' E 023°37'0 0.0
2020-Aug-08 04:59N 37°56' E 023°37'0 0.0
2020-Aug-08 03:59N 37°56' E 023°37'0 0.0
2020-Aug-08 03:29N 37°56' E 023°37'0 0.0
2020-Aug-08 02:59N 37°56' E 023°37'0 0.0
2020-Aug-08 00:59N 37°56' E 023°37'0 0.0
2020-Aug-07 23:59N 37°56' E 023°37'0 0.0
2020-Aug-07 21:59N 37°56' E 023°37'0 0.0
2020-Aug-07 19:29N 37°56' E 023°37'0 0.0
2020-Aug-07 17:29N 37°56' E 023°37'0 0.0
2020-Aug-07 16:29N 37°56' E 023°37'0 0.0
2020-Aug-07 13:59N 37°56' E 023°37'0 0.0
2020-Aug-07 12:59N 37°56' E 023°37'0 0.0
2020-Aug-07 12:29N 37°56' E 023°37'0 0.0
2020-Aug-07 10:29N 37°56' E 023°37'0 0.0
2020-Aug-07 09:59N 37°56' E 023°37'0 0.0
2020-Aug-07 06:29N 37°56' E 023°37'0 0.0
2020-Aug-07 04:59N 37°56' E 023°37'0 0.0
2020-Aug-07 04:29N 37°56' E 023°37'0 0.0
2020-Aug-07 04:00N 37°56' E 023°37'1 1.7
2020-Aug-07 03:30N 37°56' E 023°36'20 7.9
2020-Aug-07 01:00N 37°38' E 023°47'40913.0
2020-Aug-05 17:29N 34°36' E 031°20'5415.2
2020-Aug-05 13:54N 34°28' E 032°25'1415.0
2020-Aug-05 13:00N 34°26' E 032°41'714.8
2020-Aug-05 12:30N 34°26' E 032°50'23 7.5
2020-Aug-05 09:30N 34°42' E 033°10'0 0.0
2020-Aug-05 06:30N 34°42' E 033°10'0 0.0
2020-Aug-05 04:27N 34°42' E 033°10'0 0.0
2020-Aug-05 00:30N 34°42' E 033°10'0 0.0
2020-Aug-04 22:30N 34°42' E 033°10'0 0.0
2020-Aug-04 21:00N 34°42' E 033°10'0 0.0
2020-Aug-04 20:00N 34°42' E 033°10'0 0.0
2020-Aug-04 17:00N 34°42' E 033°10'0 0.0
2020-Aug-04 11:00N 34°42' E 033°10'0 0.0
2020-Aug-04 09:30N 34°42' E 033°10'0 0.0
2020-Aug-04 09:00N 34°42' E 033°10'0 0.0
2020-Aug-04 08:30N 34°42' E 033°10'0 0.0
2020-Aug-04 04:57N 34°42' E 033°10'0 0.0
2020-Aug-04 04:00N 34°42' E 033°10'0 0.0
2020-Aug-04 02:54N 34°42' E 033°10'0 0.0
2020-Aug-03 22:30N 34°42' E 033°10'0 0.0
2020-Aug-03 17:30N 34°42' E 033°10'0 0.0
2020-Aug-03 16:30N 34°42' E 033°10'0 0.0
2020-Aug-03 15:30N 34°42' E 033°10'0 0.0
2020-Aug-03 13:00N 34°42' E 033°10'0 0.0
2020-Aug-03 11:00N 34°42' E 033°10'0 0.0
2020-Aug-03 10:00N 34°42' E 033°10'0 0.0
2020-Aug-03 09:24N 34°42' E 033°10'0 0.1
2020-Aug-03 09:00N 34°42' E 033°10'0 0.0
2020-Aug-03 07:00N 34°42' E 033°10'0 0.0
2020-Aug-03 05:30N 34°42' E 033°10'0 0.0
2020-Aug-03 04:30N 34°42' E 033°10'0 0.0
2020-Aug-03 03:30N 34°42' E 033°10'0 0.0
2020-Aug-03 00:00N 34°42' E 033°10'0 0.0
2020-Aug-02 17:30N 34°42' E 033°10'0 0.0
2020-Aug-02 16:30N 34°42' E 033°10'0 0.0
2020-Aug-02 13:30N 34°42' E 033°10'0 0.1
2020-Aug-02 13:00N 34°42' E 033°10'0 0.1
2020-Aug-02 12:30N 34°42' E 033°10'0 0.0
2020-Aug-02 10:30N 34°42' E 033°10'0 0.0
2020-Aug-02 10:00N 34°42' E 033°10'0 0.0
2020-Aug-02 06:27N 34°42' E 033°10'0 0.0
2020-Aug-02 05:00N 34°42' E 033°10'0 0.0
2020-Aug-02 04:30N 34°42' E 033°10'0 0.0
2020-Aug-02 04:00N 34°42' E 033°10'0 0.0
2020-Aug-02 03:00N 34°42' E 033°10'0 0.0
2020-Aug-02 02:00N 34°42' E 033°10'0 0.0
2020-Aug-02 01:00N 34°42' E 033°10'0 0.0
2020-Aug-01 22:30N 34°42' E 033°10'0 0.0
2020-Aug-01 16:00N 34°42' E 033°10'0 0.0
2020-Aug-01 13:57N 34°42' E 033°10'0 0.0
2020-Aug-01 11:30N 34°42' E 033°10'0 0.0
2020-Aug-01 09:30N 34°42' E 033°10'0 0.0
2020-Aug-01 05:30N 34°42' E 033°10'0 0.0
2020-Aug-01 03:00N 34°42' E 033°10'0 0.0
2020-Aug-01 02:30N 34°42' E 033°10'0 0.0
2020-Aug-01 00:30N 34°42' E 033°10'0 0.0
2020-Aug-01 00:00N 34°42' E 033°10'0 0.0
2020-Jul-31 21:30N 34°42' E 033°10'0 0.0
2020-Jul-31 18:00N 34°42' E 033°10'0 0.0
2020-Jul-31 15:27N 34°42' E 033°10'0 0.0
2020-Jul-31 12:00N 34°42' E 033°10'0 0.0
2020-Jul-31 10:00N 34°42' E 033°10'0 0.0
2020-Jul-31 06:30N 34°42' E 033°10'0 0.0
2020-Jul-31 06:00N 34°42' E 033°10'0 0.0
2020-Jul-31 05:00N 34°42' E 033°10'0 0.0
2020-Jul-31 04:00N 34°42' E 033°10'0 0.0
2020-Jul-31 01:00N 34°42' E 033°10'0 0.0
2020-Jul-31 00:30N 34°42' E 033°10'0 0.0
2020-Jul-30 22:30N 34°42' E 033°10'0 0.0
2020-Jul-30 21:30N 34°42' E 033°10'0 0.0
2020-Jul-30 20:30N 34°42' E 033°10'0 0.0
2020-Jul-30 19:30N 34°42' E 033°10'0 0.0
2020-Jul-30 13:30N 34°42' E 033°10'  

Dump ship's entire track history